createdAt,value
2023-01-29T00:04:30.895Z,10.70
2023-01-29T00:09:23.665Z,9.95
2023-01-29T00:14:16.631Z,9.55
2023-01-29T00:19:09.915Z,15.35
2023-01-29T00:24:02.926Z,8.18
2023-01-29T00:29:01.014Z,9.45
2023-01-29T00:33:54.135Z,8.77
2023-01-29T00:38:54.933Z,8.23
2023-01-29T00:44:08.208Z,8.90
2023-01-29T00:49:02.072Z,8.98
2023-01-29T00:53:58.317Z,8.45
2023-01-29T00:58:51.197Z,8.63
2023-01-29T01:03:45.047Z,8.27
2023-01-29T01:08:56.147Z,8.77
2023-01-29T01:13:48.528Z,7.25
2023-01-29T01:18:41.474Z,9.10
2023-01-29T01:23:34.687Z,8.35
2023-01-29T01:28:28.564Z,7.05
2023-01-29T01:33:21.139Z,7.43
2023-01-29T01:38:14.151Z,6.82
2023-01-29T01:43:10.138Z,8.65
2023-01-29T01:48:08.862Z,7.97
2023-01-29T01:53:11.367Z,7.82
2023-01-29T01:58:12.638Z,7.78
2023-01-29T02:03:24.648Z,9.55
2023-01-29T02:08:53.297Z,12.05
2023-01-29T02:13:46.576Z,8.25
2023-01-29T02:18:40.222Z,8.77
2023-01-29T02:23:47.328Z,7.03
2023-01-29T02:28:53.242Z,7.53
2023-01-29T02:33:56.157Z,7.45
2023-01-29T02:39:20.176Z,8.15
2023-01-29T02:44:24.756Z,8.73
2023-01-29T02:49:28.212Z,6.93
2023-01-29T02:54:25.910Z,6.88
2023-01-29T02:59:36.166Z,6.90
2023-01-29T03:04:35.106Z,7.13
2023-01-29T03:09:38.079Z,7.50
2023-01-29T03:14:55.549Z,7.95
2023-01-29T03:19:49.819Z,6.45
2023-01-29T03:25:09.255Z,6.50
2023-01-29T03:30:27.905Z,6.70
2023-01-29T03:35:35.843Z,8.02
2023-01-29T03:40:37.776Z,8.53
2023-01-29T03:45:33.622Z,7.68
2023-01-29T03:50:41.503Z,7.45
2023-01-29T03:55:44.790Z,6.18
2023-01-29T04:00:45.794Z,6.00
2023-01-29T04:06:17.870Z,5.75
2023-01-29T04:11:22.593Z,7.45
2023-01-29T04:16:20.193Z,6.15
2023-01-29T04:21:32.095Z,6.10
2023-01-29T04:26:31.566Z,6.00
2023-01-29T04:31:50.761Z,8.30
2023-01-29T04:37:03.939Z,7.35
2023-01-29T04:42:11.293Z,7.13
2023-01-29T04:47:21.426Z,6.45
2023-01-29T04:52:44.642Z,5.90
2023-01-29T04:58:01.507Z,8.30
2023-01-29T05:02:54.548Z,5.60
2023-01-29T05:07:49.122Z,5.55
2023-01-29T05:12:47.173Z,5.85
2023-01-29T05:17:40.817Z,5.53
2023-01-29T05:22:37.939Z,6.32
2023-01-29T05:27:54.124Z,5.55
2023-01-29T05:32:47.867Z,5.30
2023-01-29T05:37:41.421Z,5.28
2023-01-29T05:42:35.234Z,5.93
2023-01-29T05:47:28.812Z,5.93
2023-01-29T05:52:21.887Z,5.40
2023-01-29T05:57:15.821Z,4.90
2023-01-29T06:02:09.158Z,4.97
2023-01-29T06:07:04.297Z,5.22
2023-01-29T06:11:57.280Z,8.80
2023-01-29T06:16:50.100Z,5.78
2023-01-29T06:21:44.634Z,6.72
2023-01-29T06:26:39.583Z,5.40
2023-01-29T06:31:38.899Z,9.75
2023-01-29T06:36:33.274Z,5.20
2023-01-29T06:41:26.242Z,5.28
2023-01-29T06:46:20.142Z,4.75
2023-01-29T06:51:13.674Z,6.85
2023-01-29T06:56:06.622Z,4.88
2023-01-29T07:01:08.098Z,5.10
2023-01-29T07:06:00.781Z,6.25
2023-01-29T07:10:53.574Z,7.07
2023-01-29T07:15:46.760Z,7.43
2023-01-29T07:20:43.051Z,5.82
2023-01-29T07:25:36.273Z,7.15
2023-01-29T07:30:29.724Z,9.88
2023-01-29T07:35:22.968Z,14.25
2023-01-29T07:40:16.500Z,14.02
2023-01-29T07:45:09.663Z,19.60
2023-01-29T07:50:03.350Z,9.50
2023-01-29T07:54:55.772Z,15.40
2023-01-29T07:59:48.655Z,16.95
2023-01-29T08:04:42.435Z,19.67
2023-01-29T08:09:35.190Z,17.65
2023-01-29T08:14:28.385Z,21.33
2023-01-29T08:19:21.824Z,18.80
2023-01-29T08:24:15.478Z,30.98
2023-01-29T08:29:08.891Z,25.83
2023-01-29T08:34:02.382Z,25.80
2023-01-29T08:38:56.275Z,28.30
2023-01-29T08:43:48.800Z,23.33
2023-01-29T08:48:42.768Z,24.05
2023-01-29T08:53:36.021Z,31.17
2023-01-29T08:58:30.121Z,25.60
2023-01-29T09:03:23.539Z,25.02
2023-01-29T09:08:16.370Z,26.45
2023-01-29T09:13:10.320Z,28.55
2023-01-29T09:18:07.288Z,23.75
2023-01-29T09:23:04.965Z,24.02
2023-01-29T09:27:58.700Z,20.50
2023-01-29T09:32:53.881Z,19.38
2023-01-29T09:37:51.549Z,23.45
2023-01-29T09:42:51.189Z,19.90
2023-01-29T09:47:45.508Z,19.83
2023-01-29T09:52:59.598Z,19.20
2023-01-29T09:57:58.104Z,18.05
2023-01-29T10:03:08.462Z,25.67
2023-01-29T10:08:12.456Z,19.33
2023-01-29T10:13:37.648Z,19.60
2023-01-29T10:18:50.134Z,19.33
2023-01-29T10:24:14.439Z,18.65
2023-01-29T10:29:08.610Z,13.70
2023-01-29T10:34:08.178Z,13.70
2023-01-29T10:39:01.688Z,14.98
2023-01-29T10:44:20.891Z,13.30
2023-01-29T10:49:22.769Z,12.05
2023-01-29T10:54:39.871Z,9.68
2023-01-29T10:59:45.068Z,7.50
2023-01-29T11:04:38.385Z,9.90
2023-01-29T11:09:39.357Z,11.02
2023-01-29T11:14:43.413Z,7.37
2023-01-29T11:19:44.936Z,7.53
2023-01-29T11:24:37.535Z,8.43
2023-01-29T11:29:48.058Z,7.55
2023-01-29T11:34:59.097Z,7.03
2023-01-29T11:39:52.173Z,10.05
2023-01-29T11:44:44.984Z,8.60
2023-01-29T11:49:39.516Z,9.00
2023-01-29T11:54:39.764Z,8.65
2023-01-29T11:59:41.116Z,15.25
2023-01-29T12:09:29.940Z,11.48
2023-01-29T12:14:34.815Z,8.93
2023-01-29T12:19:43.815Z,9.55
2023-01-29T12:24:44.572Z,8.40
2023-01-29T12:29:58.247Z,8.68
2023-01-29T12:35:05.664Z,7.65
2023-01-29T12:39:58.646Z,11.40
2023-01-29T12:44:56.886Z,8.80
2023-01-29T12:49:57.093Z,8.45
2023-01-29T12:54:58.738Z,44.60
2023-01-29T13:00:19.316Z,140.35
2023-01-29T13:05:25.906Z,179.63
2023-01-29T13:10:24.097Z,168.73
2023-01-29T13:15:34.151Z,160.57
2023-01-29T13:20:32.481Z,113.75
2023-01-29T13:25:26.661Z,106.57
2023-01-29T13:30:36.997Z,102.43
2023-01-29T13:35:30.459Z,83.30
2023-01-29T13:40:27.392Z,72.28
2023-01-29T13:45:42.437Z,64.00
2023-01-29T13:50:43.349Z,66.88
2023-01-29T14:00:36.385Z,42.78
2023-01-29T14:05:32.551Z,34.42
2023-01-29T14:10:27.480Z,30.73
2023-01-29T14:15:26.130Z,30.05
2023-01-29T14:20:22.321Z,25.45
2023-01-29T14:25:23.825Z,24.58
2023-01-29T14:30:19.413Z,26.35
2023-01-29T14:35:25.416Z,23.13
2023-01-29T14:40:20.328Z,19.80
2023-01-29T14:45:25.108Z,20.42
2023-01-29T14:50:29.724Z,17.48
2023-01-29T14:55:36.479Z,18.88
2023-01-29T15:00:33.397Z,15.57
2023-01-29T15:05:30.001Z,15.70
2023-01-29T15:10:38.271Z,14.80
2023-01-29T15:15:31.209Z,15.77
2023-01-29T15:20:46.021Z,12.55
2023-01-29T15:25:50.133Z,18.70
2023-01-29T15:30:45.100Z,16.33
2023-01-29T15:35:40.774Z,17.15
2023-01-29T15:40:34.724Z,12.82
2023-01-29T15:45:31.760Z,12.48
2023-01-29T15:50:25.473Z,13.25
2023-01-29T15:55:21.855Z,13.10
2023-01-29T16:00:28.048Z,16.85
2023-01-29T16:05:24.452Z,15.77
2023-01-29T16:10:21.208Z,16.83
2023-01-29T16:15:21.856Z,22.77
2023-01-29T16:20:42.809Z,17.25
2023-01-29T16:26:03.126Z,14.65
2023-01-29T16:31:01.928Z,33.08
2023-01-29T16:35:57.168Z,11.88
2023-01-29T16:41:08.638Z,18.55
2023-01-29T16:46:25.404Z,12.95
2023-01-29T16:51:36.953Z,12.77
2023-01-29T16:56:34.015Z,15.15
2023-01-29T17:01:33.650Z,13.43
2023-01-29T17:06:28.147Z,14.75
2023-01-29T17:11:30.202Z,17.25
2023-01-29T17:16:34.323Z,13.98
2023-01-29T17:21:27.384Z,11.93
2023-01-29T17:26:20.991Z,16.90
2023-01-29T17:31:14.265Z,14.05
2023-01-29T17:36:12.586Z,13.52
2023-01-29T17:41:13.846Z,10.48
2023-01-29T17:46:06.801Z,14.15
2023-01-29T17:51:03.242Z,10.68
2023-01-29T17:55:56.030Z,10.45
2023-01-29T18:00:49.501Z,10.27
2023-01-29T18:05:43.463Z,10.82
2023-01-29T18:10:36.629Z,12.95
2023-01-29T18:15:30.884Z,10.80
2023-01-29T18:20:26.502Z,12.63
2023-01-29T18:25:19.847Z,14.75
2023-01-29T18:30:13.588Z,13.27
2023-01-29T18:35:07.136Z,13.15
2023-01-29T18:39:59.840Z,15.10
2023-01-29T18:44:52.314Z,16.38
2023-01-29T18:49:45.315Z,16.10
2023-01-29T18:54:38.244Z,19.05
2023-01-29T18:59:31.150Z,13.40
2023-01-29T19:04:25.187Z,12.32
2023-01-29T19:09:17.738Z,17.05
2023-01-29T19:14:12.048Z,21.38
2023-01-29T19:19:05.804Z,22.55
2023-01-29T19:23:58.313Z,24.48
2023-01-29T19:28:51.764Z,22.90
2023-01-29T19:33:44.631Z,20.40
2023-01-29T19:38:38.838Z,21.75
2023-01-29T19:43:32.698Z,27.13
2023-01-29T19:48:26.696Z,19.88
2023-01-29T19:53:19.993Z,22.13
2023-01-29T19:58:13.826Z,22.63
2023-01-29T20:03:07.297Z,29.60
2023-01-29T20:08:00.487Z,22.25
2023-01-29T20:12:53.963Z,35.70
2023-01-29T20:17:47.210Z,23.05
2023-01-29T20:22:40.816Z,21.70
2023-01-29T20:27:33.149Z,23.63
2023-01-29T20:32:26.403Z,18.63
2023-01-29T20:37:20.467Z,17.77
2023-01-29T20:42:13.904Z,18.80
2023-01-29T20:47:07.412Z,21.52
2023-01-29T20:52:00.552Z,19.23
2023-01-29T20:56:53.069Z,21.55
2023-01-29T21:01:47.395Z,18.00
2023-01-29T21:06:40.086Z,15.00
2023-01-29T21:11:34.082Z,16.55
2023-01-29T21:16:29.040Z,15.52
2023-01-29T21:21:22.257Z,16.08
2023-01-29T21:26:15.196Z,14.82
2023-01-29T21:31:15.428Z,16.10
2023-01-29T21:36:10.482Z,14.83
2023-01-29T21:41:06.359Z,13.88
2023-01-29T21:46:01.729Z,14.43
2023-01-29T21:50:54.789Z,13.80
2023-01-29T21:55:48.959Z,14.77
2023-01-29T22:00:41.716Z,13.48
2023-01-29T22:05:34.902Z,11.68
2023-01-29T22:10:29.133Z,13.82
2023-01-29T22:15:24.047Z,10.77
2023-01-29T22:20:18.459Z,12.27
2023-01-29T22:25:12.096Z,12.20
2023-01-29T22:30:05.685Z,10.75
2023-01-29T22:34:59.087Z,13.93
2023-01-29T22:39:51.909Z,11.15
2023-01-29T22:44:50.310Z,10.43
2023-01-29T22:49:45.806Z,11.95
2023-01-29T22:54:44.211Z,9.10
2023-01-29T22:59:36.815Z,10.02
2023-01-29T23:04:30.256Z,11.20
2023-01-29T23:09:22.924Z,8.80
2023-01-29T23:14:16.204Z,8.27
2023-01-29T23:19:09.001Z,8.48
2023-01-29T23:24:01.515Z,8.73
2023-01-29T23:28:54.181Z,9.38
2023-01-29T23:33:46.952Z,7.95
2023-01-29T23:38:39.941Z,7.38
2023-01-29T23:43:33.632Z,6.90
2023-01-29T23:48:26.550Z,8.38
2023-01-29T23:53:20.010Z,7.18
2023-01-29T23:58:12.382Z,9.48
